(°C)
-1°
-1°
-1°
(°C)
-3°
-3°
-4°
-4°
-4°
-4°
-4°
NNE
NE
SE
SSE
SSE
SSE
SSE
(كم/سا)
2-9
2-9
2-9
2-11
3-13
5-15
6-18
(مم)
0
0
0
0
0
0
0
(%)
1
1
0
0
0
0
1

مستوى ارتفاع الشمس

/ 5.7°
sun-icon
UV 2
06:59
16:47
قمر المساء (256°)
23:55
10:32

متر لبارنستابل (KHYA)

الوقت الشروط درجة الحرارة/
نقطة الندى
رياح مجال رؤية حالة الطقس غيوم الضغط تغيير خام
VFR 1.1°C / -5.6°C 340º 6kt >10km - Few Clouds 2000ft 1012 - KHYA 241956Z 34006KT 10SM FEW020 01/M06 A2989 RMK AO2 SLP122 T00111056
VFR 0.6°C / -6.1°C 340º 8kt >10km - Scattered Clouds 1900ft 1011 - KHYA 241856Z 34008KT 10SM SCT019 01/M06 A2987 RMK AO2 SLP116 T00061061
VFR 0.6°C / -5.6°C 10º 10kt >10km - Scattered Clouds 1900ft 1011 - KHYA 241756Z 01010KT 10SM SCT019 01/M06 A2987 RMK AO2 SLP115 T00061056 10022 21022 56009
MVFR 1.7°C / -4.4°C 330º 8kt Gust 18kt >10km - Broken Clouds 2000ft
Broken Clouds 2600ft
1011 - KHYA 241656Z 33008G18KT 10SM BKN020 BKN026 02/M04 A2987 RMK AO2 SLP118 T00171044
MVFR 1.1°C / -5°C 330º 12kt Gust 18kt >10km - Broken Clouds 1900ft
Broken Clouds 2500ft
- KHYA 241633Z 33012G18KT 10SM BKN019 BKN025 01/M05 A2988 RMK AO2 T00111050
VFR 2.2°C / -5.6°C 330º 9kt >10km - Few Clouds 2500ft
Scattered Clouds 7000ft
1012 - KHYA 241556Z 33009KT 10SM FEW025 SCT070 02/M06 A2989 RMK AO2 SLP124 T00221056
VFR 2.2°C / -6.7°C 340º 7kt >10km - Scattered Clouds 7000ft 1012 - KHYA 241456Z 34007KT 10SM SCT070 02/M07 A2988 RMK AO2 SLP120 T00221067 51015
VFR 1.1°C / -6.1°C 330º 9kt >10km - Clear 1011 - KHYA 241356Z 33009KT 10SM CLR 01/M06 A2987 RMK AO2 SLP116 T00111061
VFR -1.1°C / -3.9°C 310º 3kt >10km - Clear 1011 - KHYA 241256Z 31003KT 9SM CLR M01/M04 A2986 RMK AO2 SLP112 T10111039
VFR -2.2°C / -5.6°C 300º 3kt >10km - Few Clouds 1900ft 1010 - KHYA 241156Z 30003KT 9SM FEW019 M02/M06 A2984 RMK AO2 SLP106 60000 T10221056 10000 21028 53019
VFR -2.2°C / -5.6°C 290º 3kt >10km - Scattered Clouds 1900ft - KHYA 241146Z 29003KT 9SM SCT019 M02/M06 A2983 RMK AO2 T10221056
MVFR -2.8°C / -5.6°C 270º 3kt >10km - Broken Clouds 2000ft - KHYA 241137Z 27003KT 9SM BKN020 M03/M06 A2983 RMK AO2 T10281056
VFR -2.2°C / -6.1°C variable 0kt >10km - Clear 1009 - KHYA 241056Z 00000KT 10SM CLR M02/M06 A2982 RMK AO2 SLP099 T10221061
VFR -1.7°C / -5.6°C 320º 3kt >10km - Overcast 11000ft 1009 - KHYA 240956Z AUTO 32003KT 10SM OVC110 M02/M06 A2979 RMK AO2 SLP091 T10171056
VFR -1.7°C / -5°C 280º 4kt >10km - Scattered Clouds 9500ft
Overcast 12000ft
1008 - KHYA 240856Z AUTO 28004KT 10SM SCT095 OVC120 M02/M05 A2978 RMK AO2 SLP087 60000 T10171050 53007
VFR -1.1°C / -5°C 300º 3kt >10km 0.13mm precipitation Few Clouds 7000ft
Overcast 9000ft
1008 - KHYA 240756Z AUTO 30003KT 10SM FEW070 OVC090 M01/M05 A2977 RMK AO2 SNE0659 SLP083 P0000 T10111050
VFR -1.1°C / -5.6°C 300º 4kt 9700m Light Snow 0.13mm precipitation Scattered Clouds 6000ft
Overcast 8000ft
1008 - KHYA 240656Z AUTO 30004KT 6SM -SN SCT060 OVC080 M01/M06 A2977 RMK AO2 SLP082 P0000 T10111056
VFR 0°C / -7.2°C 320º 6kt >10km Light Snow 0.13mm precipitation Overcast 4400ft 1008 - KHYA 240556Z AUTO 32006KT 7SM -SN OVC044 00/M07 A2976 RMK AO2 SNB53 SLP080 P0000 60000 T00001072 10011 21022 58004
VFR 0.6°C / -7.8°C 280º 4kt >10km - Overcast 5500ft 1008 - KHYA 240456Z AUTO 28004KT 10SM OVC055 01/M08 A2977 RMK AO2 SLP083 T00061078 400281094
VFR 1.1°C / -7.2°C 270º 6kt >10km - Overcast 5000ft 1008 - KHYA 240356Z AUTO 27006KT 10SM OVC050 01/M07 A2978 RMK AO2 SLP086 T00111072
VFR 0.6°C / -6.7°C 270º 3kt >10km - Scattered Clouds 3600ft
Overcast 7000ft
1008 - KHYA 240256Z 27003KT 10SM SCT036 OVC070 01/M07 A2977 RMK AO2 SLP084 T00061067 55000
VFR 0.6°C / -6.1°C 300º 3kt >10km - Broken Clouds 3300ft
Broken Clouds 7000ft
Overcast 8500ft
1008 - KHYA 240156Z 30003KT 10SM BKN033 BKN070 OVC085 01/M06 A2977 RMK AO2 SLP083 T00061061
VFR -2.2°C / -7.2°C variable 0kt >10km - Overcast 10000ft 1008 - KHYA 240056Z 00000KT 10SM OVC100 M02/M07 A2977 RMK AO2 SLP084 T10221072
VFR -1.7°C / -7.8°C 250º 3kt >10km - Clear 1008 - KHYA 232356Z 25003KT 10SM CLR M02/M08 A2977 RMK AO2 SLP084 T10171078 10028 21017 53000

VFR

1.1°C / -5.6°C

[أكثر]
رياح 340º 6kt
مجال رؤية >10km
حالة الطقس -
غيوم Few Clouds 2000ft
الضغط 1012
تغيير -
خام KHYA 241956Z 34006KT 10SM FEW020 01/M06 A2989 RMK AO2 SLP122 T00111056

VFR

0.6°C / -6.1°C

[أكثر]
رياح 340º 8kt
مجال رؤية >10km
حالة الطقس -
غيوم Scattered Clouds 1900ft
الضغط 1011
تغيير -
خام KHYA 241856Z 34008KT 10SM SCT019 01/M06 A2987 RMK AO2 SLP116 T00061061

VFR

0.6°C / -5.6°C

[أكثر]
رياح 10º 10kt
مجال رؤية >10km
حالة الطقس -
غيوم Scattered Clouds 1900ft
الضغط 1011
تغيير -
خام KHYA 241756Z 01010KT 10SM SCT019 01/M06 A2987 RMK AO2 SLP115 T00061056 10022 21022 56009

MVFR

1.7°C / -4.4°C

[أكثر]
رياح 330º 8kt Gust 18kt
مجال رؤية >10km
حالة الطقس -
غيوم Broken Clouds 2000ft
Broken Clouds 2600ft
الضغط 1011
تغيير -
خام KHYA 241656Z 33008G18KT 10SM BKN020 BKN026 02/M04 A2987 RMK AO2 SLP118 T00171044

MVFR

1.1°C / -5°C

[أكثر]
رياح 330º 12kt Gust 18kt
مجال رؤية >10km
حالة الطقس -
غيوم Broken Clouds 1900ft
Broken Clouds 2500ft
الضغط
تغيير -
خام KHYA 241633Z 33012G18KT 10SM BKN019 BKN025 01/M05 A2988 RMK AO2 T00111050

VFR

2.2°C / -5.6°C

[أكثر]
رياح 330º 9kt
مجال رؤية >10km
حالة الطقس -
غيوم Few Clouds 2500ft
Scattered Clouds 7000ft
الضغط 1012
تغيير -
خام KHYA 241556Z 33009KT 10SM FEW025 SCT070 02/M06 A2989 RMK AO2 SLP124 T00221056

VFR

2.2°C / -6.7°C

[أكثر]
رياح 340º 7kt
مجال رؤية >10km
حالة الطقس -
غيوم Scattered Clouds 7000ft
الضغط 1012
تغيير -
خام KHYA 241456Z 34007KT 10SM SCT070 02/M07 A2988 RMK AO2 SLP120 T00221067 51015

VFR

1.1°C / -6.1°C

[أكثر]
رياح 330º 9kt
مجال رؤية >10km
حالة الطقس -
غيوم Clear
الضغط 1011
تغيير -
خام KHYA 241356Z 33009KT 10SM CLR 01/M06 A2987 RMK AO2 SLP116 T00111061

VFR

-1.1°C / -3.9°C

[أكثر]
رياح 310º 3kt
مجال رؤية >10km
حالة الطقس -
غيوم Clear
الضغط 1011
تغيير -
خام KHYA 241256Z 31003KT 9SM CLR M01/M04 A2986 RMK AO2 SLP112 T10111039

VFR

-2.2°C / -5.6°C

[أكثر]
رياح 300º 3kt
مجال رؤية >10km
حالة الطقس -
غيوم Few Clouds 1900ft
الضغط 1010
تغيير -
خام KHYA 241156Z 30003KT 9SM FEW019 M02/M06 A2984 RMK AO2 SLP106 60000 T10221056 10000 21028 53019

VFR

-2.2°C / -5.6°C

[أكثر]
رياح 290º 3kt
مجال رؤية >10km
حالة الطقس -
غيوم Scattered Clouds 1900ft
الضغط
تغيير -
خام KHYA 241146Z 29003KT 9SM SCT019 M02/M06 A2983 RMK AO2 T10221056

MVFR

-2.8°C / -5.6°C

[أكثر]
رياح 270º 3kt
مجال رؤية >10km
حالة الطقس -
غيوم Broken Clouds 2000ft
الضغط
تغيير -
خام KHYA 241137Z 27003KT 9SM BKN020 M03/M06 A2983 RMK AO2 T10281056

VFR

-2.2°C / -6.1°C

[أكثر]
رياح variable 0kt
مجال رؤية >10km
حالة الطقس -
غيوم Clear
الضغط 1009
تغيير -
خام KHYA 241056Z 00000KT 10SM CLR M02/M06 A2982 RMK AO2 SLP099 T10221061

VFR

-1.7°C / -5.6°C

[أكثر]
رياح 320º 3kt
مجال رؤية >10km
حالة الطقس -
غيوم Overcast 11000ft
الضغط 1009
تغيير -
خام KHYA 240956Z AUTO 32003KT 10SM OVC110 M02/M06 A2979 RMK AO2 SLP091 T10171056

VFR

-1.7°C / -5°C

[أكثر]
رياح 280º 4kt
مجال رؤية >10km
حالة الطقس -
غيوم Scattered Clouds 9500ft
Overcast 12000ft
الضغط 1008
تغيير -
خام KHYA 240856Z AUTO 28004KT 10SM SCT095 OVC120 M02/M05 A2978 RMK AO2 SLP087 60000 T10171050 53007

VFR

-1.1°C / -5°C

[أكثر]
رياح 300º 3kt
مجال رؤية >10km
حالة الطقس 0.13mm precipitation
غيوم Few Clouds 7000ft
Overcast 9000ft
الضغط 1008
تغيير -
خام KHYA 240756Z AUTO 30003KT 10SM FEW070 OVC090 M01/M05 A2977 RMK AO2 SNE0659 SLP083 P0000 T10111050

VFR

-1.1°C / -5.6°C

[أكثر]
رياح 300º 4kt
مجال رؤية 9700m
حالة الطقس Light Snow 0.13mm precipitation
غيوم Scattered Clouds 6000ft
Overcast 8000ft
الضغط 1008
تغيير -
خام KHYA 240656Z AUTO 30004KT 6SM -SN SCT060 OVC080 M01/M06 A2977 RMK AO2 SLP082 P0000 T10111056

VFR

0°C / -7.2°C

[أكثر]
رياح 320º 6kt
مجال رؤية >10km
حالة الطقس Light Snow 0.13mm precipitation
غيوم Overcast 4400ft
الضغط 1008
تغيير -
خام KHYA 240556Z AUTO 32006KT 7SM -SN OVC044 00/M07 A2976 RMK AO2 SNB53 SLP080 P0000 60000 T00001072 10011 21022 58004

VFR

0.6°C / -7.8°C

[أكثر]
رياح 280º 4kt
مجال رؤية >10km
حالة الطقس -
غيوم Overcast 5500ft
الضغط 1008
تغيير -
خام KHYA 240456Z AUTO 28004KT 10SM OVC055 01/M08 A2977 RMK AO2 SLP083 T00061078 400281094

VFR

1.1°C / -7.2°C

[أكثر]
رياح 270º 6kt
مجال رؤية >10km
حالة الطقس -
غيوم Overcast 5000ft
الضغط 1008
تغيير -
خام KHYA 240356Z AUTO 27006KT 10SM OVC050 01/M07 A2978 RMK AO2 SLP086 T00111072

VFR

0.6°C / -6.7°C

[أكثر]
رياح 270º 3kt
مجال رؤية >10km
حالة الطقس -
غيوم Scattered Clouds 3600ft
Overcast 7000ft
الضغط 1008
تغيير -
خام KHYA 240256Z 27003KT 10SM SCT036 OVC070 01/M07 A2977 RMK AO2 SLP084 T00061067 55000

VFR

0.6°C / -6.1°C

[أكثر]
رياح 300º 3kt
مجال رؤية >10km
حالة الطقس -
غيوم Broken Clouds 3300ft
Broken Clouds 7000ft
Overcast 8500ft
الضغط 1008
تغيير -
خام KHYA 240156Z 30003KT 10SM BKN033 BKN070 OVC085 01/M06 A2977 RMK AO2 SLP083 T00061061

VFR

-2.2°C / -7.2°C

[أكثر]
رياح variable 0kt
مجال رؤية >10km
حالة الطقس -
غيوم Overcast 10000ft
الضغط 1008
تغيير -
خام KHYA 240056Z 00000KT 10SM OVC100 M02/M07 A2977 RMK AO2 SLP084 T10221072

VFR

-1.7°C / -7.8°C

[أكثر]
رياح 250º 3kt
مجال رؤية >10km
حالة الطقس -
غيوم Clear
الضغط 1008
تغيير -
خام KHYA 232356Z 25003KT 10SM CLR M02/M08 A2977 RMK AO2 SLP084 T10171078 10028 21017 53000

انقر لبارنستابل (KHYA)

From till


From till Wind 340º 7kt. Visibility 10km or more. Scattered Clouds 2500ft.
From till Wind 160º 3kt. Visibility 10km or more. Broken Clouds 4500ft.
From till Wind 170º 7kt. Visibility 6400m. Mist in the Vicinity Showers . Overcast 3000ft.
From till Wind 210º 7kt. Visibility 6400m. Mist in the Vicinity Showers . Overcast 3000ft.
From till Wind 210º 11kt. Gust 19kt. Visibility 10km or more. Broken Clouds 4000ft.

خام: KHYA 241741Z 2418/2518 34007KT P6SM SCT025 FM250000 16003KT P6SM BKN045 FM250400 17007KT 4SM BR VCSH OVC030 FM251100 21007KT 4SM BR VCSH OVC030 FM251500 21011G19KT P6SM BKN040

رادار وهطول الأمطار التنبؤ الآني لبارنستابل

رذاذ
ضوء
معتدل
ثقيل
ثقيل جدا
وابل

مؤشر المكان يشير الى بارنستابل. تظهر في هذه الرسوم المتحركة هطول الامطار بالرادار للساعة الماضية, و توقعات 1h. رذاذ أو تساقط ثلوج خفيف قد يكون غير مرئي للرادار. كثافة هطول الأمطار مرمزة بالألوان وتتراوح من الأزرق الفاتح إلى البرتقالي.

صور الأقمار الصناعية الملتقطة حالياً لبارنستابل, الولايات المتحدة الأمريكية

المؤشر يدل على موقع بارنستابل. [أكثر]

تجمع صورة الأقمار الصناعية في الوقت الفعلي بين الضوء المرئي أثناء النهار والأشعة تحت الحمراء أثناء الليل. لا تبدو الصورة مظلمة ليلاً، لأن الأشعة تحت الحمراء يمكنها الكشف عن الاختلافات في درجة الحرارة. لسوء الحظ ، يصعب التمييز بين السحب المنخفضة والضباب ودرجات حرارة الأرض ، وبالتالي يمكن أن تكون الصور غير مرئية تقريبًا أثناء الليل. يتم تحديث صور الأقمار الصناعية Meteosat الخاصة بأوروبا في الوقت الفعلي كل 5 دقائق، بينما يتم تحديث صور GOES-16 / GOES-17 (أمريكا الشمالية والجنوبية) و Himawari (آسيا) كل 10 دقائق.